Time;durP1;ratioP1;P1;durP2;ratioP2;P2;SDS_P1;SDS_P2;PMS_P1;PMS_P2;Temp;Humidity;BMP_temperature;BMP_pressure;BME280_temperature;BME280_humidity;BME280_pressure;Samples;Min_cycle;Max_cycle;Signal;HPM_P1;HPM_P2
2024/03/13 00:00:55;;;;;;;37.50;25.93;;;;;;;4.08;100.00;100801.16;4965222;28;20827;-75
2024/03/13 00:03:21;;;;;;;39.93;27.80;;;;;;;4.31;100.00;100846.56;4984411;28;20444;-75
2024/03/13 00:05:48;;;;;;;42.90;28.40;;;;;;;5.08;100.00;100990.94;4968895;28;20186;-75
2024/03/13 00:08:13;;;;;;;45.30;28.00;;;;;;;4.29;100.00;100841.41;4965116;28;20440;-75
2024/03/13 00:10:39;;;;;;;40.53;27.20;;;;;;;3.87;100.00;100776.78;4969989;28;22788;-76
2024/03/13 00:13:05;;;;;;;45.97;29.73;;;;;;;5.05;100.00;100966.50;4967722;28;20751;-75
2024/03/13 00:15:33;;;;;;;41.30;29.00;;;;;;;4.67;100.00;100896.88;4990874;28;20502;-75
2024/03/13 00:18:01;;;;;;;43.93;30.23;;;;;;;5.13;100.00;100942.59;4970820;28;20646;-75
2024/03/13 00:20:30;;;;;;;39.87;27.03;;;;;;;5.30;100.00;100970.09;4981788;28;20441;-75
2024/03/13 00:22:58;;;;;;;41.33;27.33;;;;;;;4.08;100.00;100804.63;4967308;28;20468;-76
2024/03/13 00:25:24;;;;;;;44.77;30.60;;;;;;;4.62;100.00;100889.38;4971211;28;20455;-75
2024/03/13 00:27:49;;;;;;;45.50;30.07;;;;;;;2.43;100.00;100492.72;4966426;28;20819;-74
2024/03/13 00:30:18;;;;;;;41.40;28.70;;;;;;;4.45;100.00;100838.00;4964762;28;20297;-75
2024/03/13 00:32:44;;;;;;;47.53;31.63;;;;;;;3.48;100.00;100681.72;4962178;28;20476;-75
2024/03/13 00:35:15;;;;;;;44.67;30.80;;;;;;;1.88;100.00;100448.81;4965681;28;20456;-76
2024/03/13 00:37:41;;;;;;;48.07;30.30;;;;;;;4.13;100.00;100795.34;4981362;28;20968;-75
2024/03/13 00:40:07;;;;;;;49.33;31.37;;;;;;;3.58;100.00;100765.50;4962992;28;20496;-75
2024/03/13 00:42:37;;;;;;;45.60;31.73;;;;;;;2.19;100.00;100525.97;4977854;28;20356;-75
2024/03/13 00:45:16;;;;;;;;;;;;;;;;;;;;;
2024/03/13 00:47:49;;;;;;;45.13;31.90;;;;;;;3.99;100.00;100787.00;4981006;28;20453;-75
2024/03/13 00:50:22;;;;;;;44.50;31.83;;;;;;;4.56;100.00;100854.66;4981528;28;20455;-75
2024/03/13 00:52:52;;;;;;;47.47;31.70;;;;;;;3.57;100.00;100709.97;4984932;28;20468;-74
2024/03/13 00:55:24;;;;;;;43.80;30.30;;;;;;;3.40;100.00;100637.44;4985001;28;20470;-75
2024/03/13 00:57:56;;;;;;;43.67;30.50;;;;;;;2.44;100.00;100528.81;4966183;28;20445;-75
2024/03/13 01:00:30;;;;;;;51.90;33.27;;;;;;;3.25;100.00;100650.44;4984089;28;20464;-75
2024/03/13 01:02:56;;;;;;;51.03;32.17;;;;;;;3.59;100.00;100716.78;4962087;28;20547;-75
2024/03/13 01:05:22;;;;;;;49.50;32.73;;;;;;;3.05;100.00;100623.28;4987251;28;20499;-75
2024/03/13 01:07:50;;;;;;;46.23;32.03;;;;;;;4.74;100.00;100919.16;4990864;28;20887;-75
2024/03/13 01:10:16;;;;;;;54.30;31.53;;;;;;;4.89;100.00;100951.28;4968893;28;20277;-75
2024/03/13 01:12:41;;;;;;;51.53;32.80;;;;;;;4.35;100.00;100833.81;4979585;28;20552;-75
2024/03/13 01:15:07;;;;;;;48.17;31.37;;;;;;;2.37;100.00;100557.72;4981810;28;20942;-74
2024/03/13 01:17:34;;;;;;;53.57;32.53;;;;;;;2.84;100.00;100649.31;4984307;28;20190;-75
2024/03/13 01:20:00;;;;;;;49.53;32.77;;;;;;;4.00;100.00;100827.63;4985132;28;20534;-75
2024/03/13 01:22:28;;;;;;;49.47;33.30;;;;;;;3.65;100.00;100744.50;4986727;28;20507;-75
2024/03/13 01:24:55;;;;;;;52.20;33.70;;;;;;;3.00;100.00;100699.75;4984934;28;20421;-75
2024/03/13 01:27:22;;;;;;;53.43;31.87;;;;;;;1.63;100.00;100429.25;4987092;28;20438;-75
2024/03/13 01:29:50;;;;;;;47.40;32.23;;;;;;;3.85;100.00;100819.41;4971631;28;20433;-75
2024/03/13 01:32:18;;;;;;;54.50;33.67;;;;;;;3.39;100.00;100689.63;4970786;28;20490;-75
2024/03/13 01:34:46;;;;;;;51.17;31.23;;;;;;;2.59;100.00;100559.06;4965981;28;20445;-76
2024/03/13 01:39:56;;;;;;;49.07;33.37;;;;;;;2.25;100.00;100513.94;4988674;28;20486;-75
2024/03/13 01:56:22;;;;;;;50.80;33.20;;;;;;;3.20;100.00;100800.31;4988404;28;20476;-75
2024/03/13 01:59:02;;;;;;;52.20;35.47;;;;;;;3.16;100.00;100744.13;4988123;28;20587;-75
2024/03/13 02:04:19;;;;;;;53.63;33.80;;;;;;;2.48;100.00;100625.47;4983874;28;20452;-76
2024/03/13 02:06:47;;;;;;;52.10;34.00;;;;;;;1.47;100.00;100480.13;4988374;28;20444;-75
2024/03/13 02:09:12;;;;;;;56.00;35.47;;;;;;;3.56;100.00;100801.13;4987201;28;20460;-75
2024/03/13 02:11:38;;;;;;;50.77;33.93;;;;;;;4.06;100.00;100861.50;4964976;28;20473;-75
2024/03/13 02:14:05;;;;;;;50.63;33.57;;;;;;;2.75;100.00;100690.78;4974122;28;20193;-75
2024/03/13 02:16:31;;;;;;;52.37;33.60;;;;;;;2.79;100.00;100705.38;4978021;28;20362;-75
2024/03/13 02:19:01;;;;;;;56.20;34.57;;;;;;;3.64;100.00;100772.00;4985348;28;20444;-75
2024/03/13 02:21:27;;;;;;;52.67;34.47;;;;;;;3.43;100.00;100796.22;4988554;28;20459;-75
2024/03/13 02:23:53;;;;;;;49.60;33.00;;;;;;;1.86;100.00;100535.41;4970896;28;20449;-76
2024/03/13 02:26:19;;;;;;;46.67;30.60;;;;;;;2.68;100.00;100649.97;4983424;28;20454;-75
2024/03/13 02:28:45;;;;;;;48.77;33.43;;;;;;;3.55;100.00;100765.78;4967479;28;20189;-75
2024/03/13 02:31:11;;;;;;;52.40;33.27;;;;;;;3.85;100.00;100783.09;4982988;28;20201;-75
2024/03/13 02:33:37;;;;;;;47.40;32.97;;;;;;;4.43;100.00;100879.00;4983432;28;20460;-75
2024/03/13 02:36:03;;;;;;;50.43;33.67;;;;;;;5.25;100.00;100991.00;4969701;28;20244;-75
2024/03/13 02:38:29;;;;;;;52.73;34.87;;;;;;;5.29;100.00;100947.94;4986765;28;21076;-75
2024/03/13 02:40:54;;;;;;;48.27;32.43;;;;;;;1.89;100.00;100394.09;4970862;28;20441;-76
2024/03/13 02:43:22;;;;;;;47.57;32.37;;;;;;;3.50;100.00;100654.06;4986873;28;20209;-75
2024/03/13 02:45:48;;;;;;;50.57;33.50;;;;;;;2.26;100.00;100484.69;4971177;28;20197;-75
2024/03/13 02:48:16;;;;;;;47.77;31.97;;;;;;;5.19;100.00;100945.44;4984106;28;20523;-75
2024/03/13 02:50:44;;;;;;;54.10;34.20;;;;;;;2.46;100.00;100465.97;4988802;28;20436;-75
2024/03/13 02:53:10;;;;;;;51.97;33.87;;;;;;;3.12;100.00;100597.00;4969646;28;20894;-75
2024/03/13 02:55:36;;;;;;;47.10;32.10;;;;;;;3.45;100.00;100677.56;4988869;28;20536;-75
2024/03/13 02:58:02;;;;;;;51.50;34.10;;;;;;;2.57;100.00;100507.22;4989485;28;20184;-75
2024/03/13 03:00:30;;;;;;;53.00;34.87;;;;;;;2.30;100.00;100532.00;4988021;28;20468;-75
2024/03/13 03:03:01;;;;;;;48.73;33.80;;;;;;;2.19;100.00;100470.38;4982149;28;20618;-75
2024/03/13 03:05:29;;;;;;;52.57;33.57;;;;;;;2.82;100.00;100561.22;4988706;28;20468;-75
2024/03/13 03:07:54;;;;;;;55.00;33.80;;;;;;;1.57;100.00;100375.16;4987215;28;20441;-76
2024/03/13 03:10:20;;;;;;;54.03;33.10;;;;;;;1.54;100.00;100387.88;4985743;28;20992;-75
2024/03/13 03:12:48;;;;;;;54.40;32.97;;;;;;;3.27;100.00;100676.78;4960966;28;20810;-75
2024/03/13 03:15:14;;;;;;;54.13;34.30;;;;;;;2.55;100.00;100560.34;4979930;28;20441;-75
2024/03/13 03:17:50;;;;;;;56.90;34.80;;;;;;;3.64;100.00;100734.84;4981028;28;20925;-75
2024/03/13 03:20:18;;;;;;;53.13;32.00;;;;;;;2.43;100.00;100540.38;4963864;28;20181;-75
2024/03/13 03:22:44;;;;;;;55.83;35.90;;;;;;;3.41;100.00;100689.47;4972717;28;20873;-75
2024/03/13 03:25:09;;;;;;;51.60;34.00;;;;;;;2.53;100.00;100557.03;4985827;28;20532;-75
2024/03/13 03:27:40;;;;;;;55.17;34.90;;;;;;;1.70;100.00;100403.84;4962850;28;20193;-75
2024/03/13 03:30:06;;;;;;;54.70;34.30;;;;;;;3.71;100.00;100722.66;4980351;28;20186;-75
2024/03/13 03:32:36;;;;;;;57.83;34.17;;;;;;;2.40;100.00;100533.59;4979131;28;20627;-75
2024/03/13 03:35:05;;;;;;;53.07;33.73;;;;;;;4.43;100.00;100831.19;4982308;28;20471;-75
2024/03/13 03:37:33;;;;;;;52.97;33.10;;;;;;;4.20;100.00;100788.44;4962792;28;20449;-75
2024/03/13 03:40:00;;;;;;;52.60;31.83;;;;;;;4.72;100.00;100922.00;4965614;28;20494;-75
2024/03/13 03:42:29;;;;;;;49.33;31.83;;;;;;;2.57;100.00;100546.94;4979446;28;20819;-75
2024/03/13 03:44:57;;;;;;;51.17;32.13;;;;;;;3.65;100.00;100688.78;4956937;28;20454;-75
2024/03/13 03:47:22;;;;;;;51.20;33.53;;;;;;;3.58;100.00;100685.91;4979838;28;20451;-75
2024/03/13 03:49:48;;;;;;;50.37;32.57;;;;;;;2.41;100.00;100452.38;4965805;28;20460;-75
2024/03/13 03:52:13;;;;;;;51.13;32.57;;;;;;;5.29;100.00;100969.22;4965043;28;20217;-75
2024/03/13 03:54:39;;;;;;;49.73;31.53;;;;;;;1.77;100.00;100406.75;4980827;28;20192;-75
2024/03/13 03:57:09;;;;;;;43.20;30.10;;;;;;;3.32;100.00;100627.59;4966504;28;20650;-75
2024/03/13 03:59:38;;;;;;;49.17;31.70;;;;;;;2.31;100.00;100483.38;4969000;28;20455;-75
2024/03/13 04:02:03;;;;;;;48.73;32.23;;;;;;;4.50;100.00;100840.19;4982514;28;20524;-75
2024/03/13 04:04:29;;;;;;;52.37;31.90;;;;;;;2.00;100.00;100383.28;4984261;28;20441;-75
2024/03/13 04:07:00;;;;;;;50.80;32.10;;;;;;;2.77;100.00;100523.75;4992649;28;20220;-75
2024/03/13 04:09:26;;;;;;;49.90;32.40;;;;;;;1.94;100.00;100402.38;4985952;28;24382;-75
2024/03/13 04:11:52;;;;;;;51.33;31.87;;;;;;;2.02;100.00;100450.91;4966533;28;20496;-75
2024/03/13 04:14:20;;;;;;;49.20;31.57;;;;;;;3.23;100.00;100612.63;4985344;28;20185;-75
2024/03/13 04:16:50;;;;;;;51.23;32.73;;;;;;;3.76;100.00;100695.63;4985670;28;21381;-75
2024/03/13 04:19:15;;;;;;;48.97;31.00;;;;;;;3.10;100.00;100604.28;4970007;28;20948;-75
2024/03/13 04:21:42;;;;;;;52.60;33.07;;;;;;;1.42;100.00;100315.91;4984580;28;20496;-75
2024/03/13 04:24:08;;;;;;;54.47;33.33;;;;;;;3.84;100.00;100754.06;4964757;28;20255;-75
2024/03/13 04:26:43;;;;;;;49.17;30.80;;;;;;;4.76;100.00;100875.50;4967051;28;20473;-76
2024/03/13 04:29:10;;;;;;;48.57;31.30;;;;;;;3.08;100.00;100638.88;4970869;28;20654;-75
2024/03/13 04:31:40;;;;;;;50.03;30.80;;;;;;;2.57;100.00;100505.41;4980339;28;20456;-75
2024/03/13 04:34:11;;;;;;;49.97;32.10;;;;;;;3.70;100.00;100689.13;4984984;28;20952;-75
2024/03/13 04:36:40;;;;;;;48.03;31.00;;;;;;;4.45;100.00;100781.38;4983657;28;20905;-75
2024/03/13 04:39:06;;;;;;;49.03;31.90;;;;;;;3.78;100.00;100689.19;4983012;28;20539;-75
2024/03/13 04:41:39;;;;;;;57.87;32.80;;;;;;;2.62;100.00;100518.19;4964167;28;20452;-75
2024/03/13 04:44:05;;;;;;;48.63;30.47;;;;;;;3.23;100.00;100609.16;4965038;28;20496;-75
2024/03/13 04:46:30;;;;;;;50.20;30.90;;;;;;;3.54;100.00;100679.28;4964879;28;21403;-75
2024/03/13 04:48:56;;;;;;;51.93;32.53;;;;;;;3.50;100.00;100666.47;4978055;28;20495;-75
2024/03/13 04:51:22;;;;;;;47.60;31.03;;;;;;;3.12;100.00;100587.22;4980036;28;20294;-75
2024/03/13 04:53:52;;;;;;;50.70;31.53;;;;;;;3.30;100.00;100689.75;4983965;28;20309;-75
2024/03/13 04:56:18;;;;;;;50.23;31.10;;;;;;;4.50;100.00;100890.66;4979597;28;20439;-75
2024/03/13 04:58:44;;;;;;;48.23;29.70;;;;;;;4.30;100.00;100864.31;4984396;28;20452;-75
2024/03/13 05:01:17;;;;;;;51.17;30.33;;;;;;;2.52;100.00;100551.88;4984249;28;20214;-75
2024/03/13 05:03:45;;;;;;;50.47;30.47;;;;;;;2.76;100.00;100561.84;4980935;28;20440;-75
2024/03/13 05:06:11;;;;;;;51.13;29.93;;;;;;;5.63;100.00;101090.75;4982654;28;20442;-75
2024/03/13 05:08:41;;;;;;;47.30;29.50;;;;;;;3.16;100.00;100672.56;4979746;28;20437;-75
2024/03/13 05:11:09;;;;;;;52.17;29.97;;;;;;;3.24;100.00;100688.53;4966985;28;20209;-75
2024/03/13 05:13:38;;;;;;;41.60;27.20;;;;;;;4.44;100.00;100849.63;4973123;28;20464;-75
2024/03/13 05:16:04;;;;;;;46.73;27.83;;;;;;;3.08;100.00;100702.47;4977602;28;21217;-76
2024/03/13 05:18:32;;;;;;;50.10;30.30;;;;;;;4.00;100.00;100793.13;4983386;28;20495;-75
2024/03/13 05:21:01;;;;;;;45.87;28.07;;;;;;;2.06;100.00;100522.88;4964957;28;20264;-75
2024/03/13 05:23:29;;;;;;;51.80;27.57;;;;;;;4.78;100.00;100967.53;4975707;28;20433;-75
2024/03/13 05:25:59;;;;;;;52.60;30.27;;;;;;;3.98;100.00;100888.81;4983825;28;20891;-75
2024/03/13 05:28:29;;;;;;;51.20;30.13;;;;;;;4.03;100.00;100880.41;4981286;28;20444;-75
2024/03/13 05:30:58;;;;;;;48.00;29.97;;;;;;;3.26;100.00;100803.19;4967135;28;20514;-75
2024/03/13 05:33:26;;;;;;;48.87;30.20;;;;;;;3.67;100.00;100917.56;4988028;28;20545;-75
2024/03/13 05:35:53;;;;;;;52.30;29.27;;;;;;;2.54;100.00;100717.53;4987055;28;20432;-75
2024/03/13 05:38:19;;;;;;;52.63;29.97;;;;;;;3.56;100.00;100872.75;4984363;28;20855;-75
2024/03/13 05:40:45;;;;;;;49.93;30.60;;;;;;;5.78;100.00;101256.00;4970837;28;20927;-75
2024/03/13 05:43:11;;;;;;;53.57;30.27;;;;;;;2.62;100.00;100765.28;4967128;28;20436;-75
2024/03/13 05:45:36;;;;;;;49.83;28.47;;;;;;;2.65;100.00;100740.34;4981724;28;20276;-75
2024/03/13 05:48:04;;;;;;;51.13;30.77;;;;;;;5.89;100.00;101319.63;4966463;28;20217;-74
2024/03/13 05:50:29;;;;;;;54.23;31.37;;;;;;;5.04;100.00;101174.88;4983211;28;20210;-75
2024/03/13 05:52:55;;;;;;;49.40;28.97;;;;;;;3.89;100.00;101032.22;4966644;28;20507;-75
2024/03/13 05:55:20;;;;;;;54.33;31.37;;;;;;;3.80;100.00;101052.53;4984152;28;20232;-75
2024/03/13 05:57:46;;;;;;;55.07;29.87;;;;;;;2.47;100.00;100828.50;4966864;28;20186;-75
2024/03/13 06:00:13;;;;;;;48.10;29.67;;;;;;;2.68;100.00;100970.44;4973999;28;20290;-75
2024/03/13 06:02:41;;;;;;;53.63;30.27;;;;;;;3.15;100.00;101058.72;4971138;28;20617;-75
2024/03/13 06:05:16;;;;;;;59.47;30.27;;;;;;;3.08;100.00;101099.19;4965598;28;20887;-74
2024/03/13 06:07:44;;;;;;;56.27;32.13;;;;;;;5.37;100.00;101543.88;4981896;28;20976;-75
2024/03/13 06:10:11;;;;;;;54.73;31.30;;;;;;;3.84;100.00;101317.44;4986647;28;20471;-75
2024/03/13 06:12:37;;;;;;;56.23;31.00;;;;;;;3.47;100.00;101269.63;4969927;28;20489;-75
2024/03/13 06:15:07;;;;;;;59.00;32.03;;;;;;;3.78;100.00;101341.06;4967947;28;20185;-74
2024/03/13 06:17:35;;;;;;;51.03;30.27;;;;;;;3.92;100.00;101417.56;4980680;28;20190;-76
2024/03/13 06:20:07;;;;;;;62.23;32.23;;;;;;;5.95;100.00;101661.72;4967943;28;20543;-74
2024/03/13 06:22:33;;;;;;;59.03;30.87;;;;;;;4.48;100.00;101450.44;4982131;28;20463;-74
2024/03/13 06:25:00;;;;;;;57.20;30.80;;;;;;;5.92;100.00;101750.69;4965312;28;20437;-74
2024/03/13 06:27:28;;;;;;;63.93;32.83;;;;;;;5.11;100.00;101598.72;4983752;28;20205;-75
2024/03/13 06:29:58;;;;;;;62.97;32.40;;;;;;;5.71;100.00;101705.66;4981451;28;20481;-75
2024/03/13 06:32:28;;;;;;;51.90;29.30;;;;;;;5.72;100.00;101704.66;4968728;28;20472;-75
2024/03/13 06:34:57;;;;;;;60.40;31.73;;;;;;;4.92;100.00;101613.75;4986987;28;20433;-76
2024/03/13 06:37:25;;;;;;;55.43;30.03;;;;;;;6.04;100.00;101805.47;4969446;28;20477;-75
2024/03/13 06:39:52;;;;;;;60.73;31.17;;;;;;;5.68;100.00;101774.31;4971535;28;20444;-75
2024/03/13 06:42:17;;;;;;;69.37;31.10;;;;;;;5.30;100.00;101739.66;4984136;28;20987;-75
2024/03/13 06:44:43;;;;;;;67.50;34.03;;;;;;;5.95;100.00;101914.69;4972235;28;20429;-74
2024/03/13 06:47:11;;;;;;;64.40;33.67;;;;;;;4.89;100.00;101767.34;4970171;28;20193;-75
2024/03/13 06:49:39;;;;;;;68.83;33.03;;;;;;;5.68;100.00;101977.44;4979269;28;20198;-75
2024/03/13 06:52:06;;;;;;;71.17;34.97;;;;;;;5.39;100.00;101988.06;4985914;28;20471;-75
2024/03/13 06:54:32;;;;;;;65.23;32.90;;;;;;;5.62;100.00;102061.34;4969789;28;20440;-75
2024/03/13 06:56:57;;;;;;;76.97;36.50;;;;;;;5.74;100.00;102151.75;4983079;28;20459;-75
2024/03/13 06:59:23;;;;;;;72.93;35.47;;;;;;;5.43;100.00;102162.41;4986992;28;20202;-75
2024/03/13 07:01:51;;;;;;;68.70;32.93;;;;;;;6.23;100.00;102384.56;4966622;28;20686;-74
2024/03/13 07:04:17;;;;;;;68.20;32.57;;;;;;;6.03;100.00;102386.28;4985038;28;20705;-74
2024/03/13 07:06:43;;;;;;;73.37;34.67;;;;;;;6.15;100.00;102547.75;4985935;28;20949;-74
2024/03/13 07:09:09;;;;;;;73.63;34.57;;;;;;;5.28;100.00;102421.81;4968527;28;20448;-74
2024/03/13 07:11:34;;;;;;;69.83;33.53;;;;;;;5.92;100.00;102689.94;4968569;28;20202;-74
2024/03/13 07:14:01;;;;;;;73.90;33.70;;;;;;;5.13;100.00;102571.03;4973798;28;20048;-74
2024/03/13 07:16:26;;;;;;;70.27;34.00;;;;;;;6.31;100.00;102800.50;4983001;28;20402;-74
2024/03/13 07:18:52;;;;;;;71.83;36.47;;;;;;;6.09;100.00;102772.88;4987571;28;20464;-75
2024/03/13 07:21:17;;;;;;;66.33;34.00;;;;;;;5.88;100.00;102742.59;4968678;28;20347;-75
2024/03/13 07:23:43;;;;;;;68.30;34.03;;;;;;;6.27;100.00;102836.34;4985023;28;20185;-74
2024/03/13 07:26:08;;;;;;;64.07;33.17;;;;;;;5.69;100.00;102761.00;4988338;28;20674;-75
2024/03/13 07:28:40;;;;;;;68.47;34.00;;;;;;;6.21;100.00;102823.50;4987115;28;20421;-75
2024/03/13 07:31:07;;;;;;;68.80;32.20;;;;;;;5.78;100.00;102653.75;4988521;28;20202;-74
2024/03/13 07:33:33;;;;;;;63.53;31.67;;;;;;;6.69;100.00;102639.22;4985797;28;20460;-74
2024/03/13 07:35:59;;;;;;;73.33;34.90;;;;;;;5.85;100.00;102383.34;4992961;28;20440;-74
2024/03/13 07:38:24;;;;;;;69.53;32.30;;;;;;;6.55;100.00;102517.72;4968225;28;20695;-74
2024/03/13 07:40:49;;;;;;;65.60;33.60;;;;;;;5.95;100.00;102473.97;4987194;28;20178;-74
2024/03/13 07:43:15;;;;;;;69.27;33.90;;;;;;;6.04;100.00;102553.13;4991023;28;20661;-74
2024/03/13 07:45:40;;;;;;;65.37;32.83;;;;;;;5.52;100.00;102481.00;4988828;28;20185;-75
2024/03/13 07:48:08;;;;;;;67.23;33.20;;;;;;;5.85;100.00;102556.44;4992258;28;20186;-74
2024/03/13 07:50:38;;;;;;;72.10;33.47;;;;;;;6.63;100.00;102763.25;4989451;28;20186;-74
2024/03/13 07:53:08;;;;;;;70.03;31.33;;;;;;;6.84;100.00;102918.00;4971531;28;20477;-74
2024/03/13 07:55:34;;;;;;;67.27;32.27;;;;;;;5.97;100.00;102839.63;4971646;28;20445;-74
2024/03/13 07:58:00;;;;;;;70.87;33.33;;;;;;;6.54;100.00;103036.78;4986476;28;21438;-74
2024/03/13 08:00:27;;;;;;;66.23;32.20;;;;;;;6.62;100.00;103099.34;4990051;28;20437;-74
2024/03/13 08:02:54;;;;;;;69.60;31.83;;;;;;;6.27;100.00;103135.69;4983026;28;20256;-75
2024/03/13 08:05:20;;;;;;;65.67;32.20;;;;;;;5.97;100.00;103122.00;4971486;28;20441;-74
2024/03/13 08:07:45;;;;;;;56.83;29.27;;;;;;;6.44;100.00;103243.75;4968495;28;20448;-74
2024/03/13 08:10:13;;;;;;;76.30;32.80;;;;;;;6.47;100.00;103328.00;4967758;28;20193;-74
2024/03/13 08:12:39;;;;;;;68.23;32.37;;;;;;;6.11;100.00;103239.06;4982456;28;21231;-74
2024/03/13 08:15:05;;;;;;;62.37;31.77;;;;;;;5.99;100.00;103283.44;4986624;28;20440;-74
2024/03/13 08:17:30;;;;;;;71.30;30.47;;;;;;;7.10;100.00;103459.47;4988968;28;20178;-74
2024/03/13 08:19:56;;;;;;;63.43;30.00;;;;;;;6.96;100.00;103359.91;4969126;28;20448;-75
2024/03/13 08:22:21;;;;;;;67.37;31.73;;;;;;;6.39;100.00;103315.19;4984475;28;20205;-75
2024/03/13 08:24:47;;;;;;;62.80;31.47;;;;;;;6.33;100.00;103222.34;4971023;28;20256;-74
2024/03/13 08:27:13;;;;;;;67.40;31.73;;;;;;;6.87;100.00;103263.72;4986299;28;20654;-75
2024/03/13 08:29:39;;;;;;;71.97;34.20;;;;;;;6.73;100.00;103150.88;4968715;28;20456;-75
2024/03/13 08:32:06;;;;;;;68.67;32.80;;;;;;;6.21;100.00;102884.81;4968744;28;20210;-74
2024/03/13 08:34:33;;;;;;;78.20;33.77;;;;;;;6.16;100.00;102737.75;4970881;28;20448;-74
2024/03/13 08:36:58;;;;;;;68.40;32.00;;;;;;;6.68;100.00;102650.84;4985745;28;20446;-74
2024/03/13 08:39:26;;;;;;;71.50;34.20;;;;;;;6.72;100.00;102566.97;4991310;28;20440;-74
2024/03/13 08:41:51;;;;;;;72.60;33.10;;;;;;;6.61;100.00;102450.53;4983129;28;20309;-75
2024/03/13 08:44:16;;;;;;;79.73;34.97;;;;;;;6.26;100.00;102363.81;4970614;28;20431;-75
2024/03/13 08:46:43;;;;;;;82.13;35.23;;;;;;;7.11;100.00;102445.22;4987500;28;20194;-74
2024/03/13 08:49:08;;;;;;;78.97;35.27;;;;;;;6.55;100.00;102286.63;4988721;28;20700;-74
2024/03/13 08:51:34;;;;;;;75.83;34.87;;;;;;;6.93;100.00;102321.50;4984339;28;20499;-74
2024/03/13 08:53:59;;;;;;;75.77;34.33;;;;;;;7.27;100.00;102350.47;4970437;28;20943;-75
2024/03/13 08:56:27;;;;;;;80.23;35.70;;;;;;;7.01;100.00;102218.44;4969641;28;20846;-74
2024/03/13 08:58:52;;;;;;;73.30;34.00;;;;;;;6.80;100.00;102151.09;4967667;28;20201;-74
2024/03/13 09:01:18;;;;;;;71.57;32.67;;;;;;;7.29;100.00;102202.56;4986131;28;20472;-74
2024/03/13 09:03:45;;;;;;;72.80;33.70;;;;;;;7.29;100.00;102177.66;4972589;28;20193;-74
2024/03/13 09:06:16;;;;;;;72.87;33.93;;;;;;;7.13;100.00;102101.72;4983099;28;20440;-74
2024/03/13 09:08:44;;;;;;;85.27;35.17;;;;;;;6.68;100.00;101993.09;4987180;28;20451;-74
2024/03/13 09:11:12;;;;;;;74.97;32.97;;;;;;;7.47;100.00;102126.06;4984909;28;20472;-74
2024/03/13 09:13:40;;;;;;;78.50;33.63;;;;;;;7.17;100.00;102052.41;4987991;28;20567;-74
2024/03/13 09:16:06;;;;;;;75.33;32.70;;;;;;;7.41;100.00;102089.28;4986250;28;20529;-74
2024/03/13 09:18:32;;;;;;;79.80;33.90;;;;;;;7.52;100.00;102071.38;4985679;28;21062;-74
2024/03/13 09:20:57;;;;;;;86.67;33.80;;;;;;;7.12;100.00;101974.66;4986482;28;20669;-74
2024/03/13 09:23:23;;;;;;;85.97;34.63;;;;;;;7.52;100.00;102010.81;4986876;28;20452;-75
2024/03/13 09:25:48;;;;;;;81.30;34.60;;;;;;;6.64;100.00;101857.53;4988228;28;20212;-74
2024/03/13 09:28:14;;;;;;;85.77;34.50;;;;;;;6.89;100.00;101842.69;4991199;28;20185;-74
2024/03/13 09:30:40;;;;;;;88.73;34.57;;;;;;;6.54;100.00;101751.81;4990724;28;20193;-74
2024/03/13 09:33:08;;;;;;;79.00;36.00;;;;;;;7.33;100.00;101795.56;4983431;28;20578;-74
2024/03/13 09:35:34;;;;;;;81.47;34.27;;;;;;;7.74;100.00;101742.47;4972447;28;20228;-74
2024/03/13 09:37:59;;;;;;;78.83;35.63;;;;;;;7.21;100.00;101610.03;4986283;28;20466;-74
2024/03/13 09:40:25;;;;;;;76.13;34.50;;;;;;;7.20;100.00;101453.56;4985336;28;20473;-74
2024/03/13 09:42:53;;;;;;;78.07;34.07;;;;;;;7.14;100.00;101343.00;4969980;28;20260;-74
2024/03/13 09:45:24;;;;;;;69.80;33.87;;;;;;;7.85;100.00;101411.00;4965934;28;20202;-74
2024/03/13 09:47:51;;;;;;;66.00;32.07;;;;;;;8.00;100.00;101309.63;4983877;28;20811;-74
2024/03/13 09:50:18;;;;;;;75.43;31.67;;;;;;;7.63;100.00;101222.91;4981758;28;20863;-75
2024/03/13 09:52:46;;;;;;;65.57;30.67;;;;;;;8.00;100.00;101234.84;4967330;28;20464;-74
2024/03/13 09:55:15;;;;;;;65.70;30.53;;;;;;;8.11;100.00;101204.25;4979437;28;21064;-74
2024/03/13 09:57:40;;;;;;;72.77;32.60;;;;;;;7.30;100.00;101103.91;4986058;28;20865;-74
2024/03/13 10:00:14;;;;;;;64.40;30.60;;;;;;;7.13;100.00;101034.56;4979995;28;20444;-74
2024/03/13 10:02:42;;;;;;;60.03;30.80;;;;;;;7.02;100.00;100984.25;4986613;28;20220;-74
2024/03/13 10:05:12;;;;;;;62.97;29.57;;;;;;;7.48;100.00;100907.81;4984404;28;20455;-74
2024/03/13 10:07:38;;;;;;;63.73;29.90;;;;;;;7.79;100.00;100866.91;4968615;28;20491;-74
2024/03/13 10:10:26;;;;;;;61.37;30.40;;;;;;;8.22;100.00;100688.16;4986321;28;20440;-74
2024/03/13 10:12:55;;;;;;;63.27;31.40;;;;;;;7.51;100.00;100425.41;4987106;28;20216;-74
2024/03/13 10:15:21;;;;;;;59.77;28.57;;;;;;;7.41;100.00;100066.34;4984356;28;20465;-74
2024/03/13 10:18:13;;;;;;;52.13;26.90;;;;;;;7.60;100.00;100110.16;4970752;28;20524;-74
2024/03/13 10:20:47;;;;;;;60.90;29.33;;;;;;;7.64;100.00;99112.47;4968014;28;21136;-74
2024/03/13 10:23:14;;;;;;;59.80;28.70;;;;;;;8.07;100.00;99319.84;4982023;28;20441;-74
2024/03/13 10:25:44;;;;;;;58.83;28.57;;;;;;;8.40;100.00;99201.19;4980233;28;20484;-74
2024/03/13 10:28:13;;;;;;;64.43;29.23;;;;;;;7.87;100.00;99101.94;4985077;28;20449;-74
2024/03/13 10:30:39;;;;;;;58.73;27.70;;;;;;;8.49;100.00;99079.59;4984128;28;20445;-74
2024/03/13 10:33:05;;;;;;;55.33;26.73;;;;;;;7.67;100.00;98583.69;4969706;28;20497;-74
2024/03/13 10:35:30;;;;;;;54.83;29.30;;;;;;;8.38;100.00;98704.47;4984777;28;20182;-74
2024/03/13 10:37:57;;;;;;;51.60;27.17;;;;;;;7.48;100.00;98289.59;4983443;28;20790;-74
2024/03/13 10:40:24;;;;;;;56.97;27.03;;;;;;;8.27;100.00;98302.84;4985985;28;20186;-75
2024/03/13 10:42:50;;;;;;;61.50;26.87;;;;;;;8.35;100.00;98341.69;4984169;28;20552;-75
2024/03/13 10:45:16;;;;;;;54.07;27.17;;;;;;;7.83;100.00;98236.00;4968540;28;20582;-74
2024/03/13 10:47:42;;;;;;;46.60;25.53;;;;;;;7.78;100.00;98176.41;4967542;28;20561;-74
2024/03/13 10:50:12;;;;;;;50.93;26.17;;;;;;;8.68;100.00;98283.91;4982101;28;20284;-74
2024/03/13 10:52:39;;;;;;;54.97;27.93;;;;;;;8.42;100.00;98216.00;4965342;28;20492;-74
2024/03/13 10:55:06;;;;;;;49.80;25.70;;;;;;;8.87;100.00;98132.84;4966151;28;20449;-75
2024/03/13 10:57:31;;;;;;;48.47;24.90;;;;;;;8.13;100.00;97928.59;4986055;28;21117;-75
2024/03/13 10:59:57;;;;;;;55.97;27.00;;;;;;;8.74;100.00;98058.44;4986916;28;20474;-74
2024/03/13 11:02:23;;;;;;;54.80;24.93;;;;;;;8.72;100.00;97919.72;4970001;28;20236;-74
2024/03/13 11:04:49;;;;;;;49.00;25.10;;;;;;;8.91;100.00;97834.56;4985398;28;20189;-74
2024/03/13 11:07:16;;;;;;;51.27;24.70;;;;;;;8.76;100.00;97624.16;4983319;28;20186;-75
2024/03/13 11:09:42;;;;;;;47.03;24.93;;;;;;;8.82;100.00;97561.66;4974310;28;20441;-74
2024/03/13 11:12:20;;;;;;;50.70;25.10;;;;;;;8.52;100.00;97404.03;4987546;28;20515;-75
2024/03/13 11:14:52;;;;;;;50.13;25.90;;;;;;;8.88;100.00;97270.34;4974011;28;20677;-74
2024/03/13 11:17:22;;;;;;;47.80;25.13;;;;;;;8.20;100.00;97092.75;4968208;28;20451;-75
2024/03/13 11:20:01;;;;;;;50.50;25.57;;;;;;;8.02;100.00;97013.31;4985568;28;20452;-74
2024/03/13 11:22:31;;;;;;;48.80;24.10;;;;;;;8.89;100.00;96911.16;4987367;28;20464;-74
2024/03/13 11:24:57;;;;;;;46.97;24.87;;;;;;;9.02;100.00;96990.66;4989231;28;20491;-75
2024/03/13 11:27:26;;;;;;;43.80;23.70;;;;;;;9.00;100.00;96787.03;4988687;28;20444;-74
2024/03/13 11:29:54;;;;;;;46.23;23.63;;;;;;;9.03;100.00;96741.81;4990012;28;20483;-74
2024/03/13 11:32:21;;;;;;;41.57;22.50;;;;;;;9.13;100.00;96529.69;4986545;28;20481;-74